Flight Track Log - Related Links

Times and Time Zones

All times are in EDT time to prevent confusion due to time zone crossing. See the USC105 flight status page for this flight to view local times or setup timezone preferences in your user account.


Time Position Orientation Groundspeed Altitude Reporting Facility
EDT Latitude Longitude Course Direction KTS MPH feet Rate Location/Type
Wed 05:15:20 AM 41.9000 -88.2167 160° South 107 123 1,900  Level Chicago TRACON
Wed 05:16:20 AM 41.8667 -88.2000 160° South 110 127 3,000 1,086 Climbing Chicago TRACON
Wed 05:17:05 AM 41.8697 -88.1658 83° East 126 145 3,800 1,019 Climbing Chicago Center
Wed 05:18:06 AM 41.8775 -88.1128 79° East 139 160 4,800 978 Climbing Chicago Center
Wed 05:19:20 AM 41.8833 -88.0500 83° East 141 162 6,000 493 Climbing Chicago TRACON
Wed 05:20:20 AM 41.9000 -87.9833 71° East 178 205 5,900 -50 Descending Chicago TRACON
Wed 05:21:20 AM 41.9000 -87.9167 90° East 177 204 5,900 50 Level Chicago TRACON
Wed 05:22:20 AM 41.9000 -87.8500 90° East 186 214 6,000 50 Climbing Chicago TRACON
Wed 05:23:20 AM 41.9167 -87.7833 71° East 193 222 6,000  Level Chicago TRACON
Wed 05:24:21 AM 41.9167 -87.7000 90° East 197 227 6,000  Level Chicago TRACON
Wed 05:25:21 AM 41.9167 -87.6333 90° East 195 224 6,000  Level Chicago TRACON
Wed 05:26:21 AM 41.9333 -87.5667 71° East 194 223 6,000 350 Level Chicago TRACON
Wed 05:27:21 AM 41.9333 -87.5000 90° East 166 191 6,700 500 Climbing Chicago TRACON
Wed 05:28:21 AM 41.9500 -87.4333 71° East 175 201 7,000 107 Climbing Chicago TRACON
Wed 05:30:10 AM 41.9544 -87.3192 87° East 181 208 7,000 -35 Level Chicago Center
Wed 05:31:11 AM 41.9619 -87.2481 82° East 191 220 6,900 -50 Descending Chicago Center
Wed 05:32:11 AM 41.9683 -87.1742 83° East 197 227 6,900  Level Chicago Center
Wed 05:33:12 AM 41.9747 -87.1031 83° East 193 222 6,900  Level Chicago Center
Wed 05:34:12 AM 41.9806 -87.0289 84° East 199 229 6,900  Level Chicago Center
Wed 05:35:13 AM 41.9881 -86.9569 82° East 197 227 6,900  Level Chicago Center
Wed 05:36:13 AM 41.9942 -86.8844 84° East 197 227 6,900  Level Chicago Center
Wed 05:37:13 AM 42.0008 -86.8114 83° East 197 227 6,900  Level Chicago Center
Wed 05:38:14 AM 42.0069 -86.7392 83° East 196 226 6,900  Level Chicago Center
Wed 05:39:14 AM 42.0139 -86.6572 83° East 198 228 6,900  Level Chicago Center
Wed 05:40:15 AM 42.0208 -86.5850 83° East 197 227 6,900  Level Chicago Center
Wed 05:41:15 AM 42.0267 -86.5114 84° East 197 227 6,900  Level Chicago Center
Wed 05:42:15 AM 42.0328 -86.4378 84° East 199 229 6,900  Level Chicago Center
Wed 05:43:16 AM 42.0397 -86.3633 83° East 200 230 6,900  Level Chicago Center
Wed 05:44:16 AM 42.0453 -86.2911 84° East 197 227 6,900  Level Chicago Center
Wed 05:45:17 AM 42.0517 -86.2183 83° East 196 226 6,900  Level Chicago Center
Wed 05:46:17 AM 42.0569 -86.1444 84° East 198 228 6,900  Level Chicago Center
Wed 05:47:17 AM 42.0628 -86.0725 84° East 196 226 6,900  Level Chicago Center
Wed 05:48:18 AM 42.0697 -85.9975 83° East 200 230 6,900  Level Chicago Center
Wed 05:49:18 AM 42.0756 -85.9250 84° East 196 226 6,900  Level Chicago Center
Wed 05:50:19 AM 42.0814 -85.8506 84° East 199 229 6,900  Level Chicago Center
Wed 05:51:19 AM 42.0875 -85.7775 84° East 197 227 6,900  Level Chicago Center
Wed 05:52:19 AM 42.0931 -85.7053 84° East 195 224 6,900  Level Chicago Center
Wed 05:53:20 AM 42.0986 -85.6322 84° East 196 226 6,900  Level Chicago Center
Wed 05:54:20 AM 42.1042 -85.5586 84° East 197 227 6,900  Level Chicago Center
Wed 05:55:21 AM 42.1106 -85.4858 83° East 197 227 6,900  Level Chicago Center
Wed 05:56:21 AM 42.1158 -85.4131 84° East 196 226 6,900  Level Chicago Center
Wed 05:57:21 AM 42.1214 -85.3408 84° East 194 223 6,900  Level Chicago Center
Wed 05:58:22 AM 42.1269 -85.2683 84° East 194 223 6,900  Level Chicago Center
Wed 05:59:22 AM 42.1319 -85.1956 85° East 195 224 6,900  Level Chicago Center
Wed 06:00:25 AM 42.1383 -85.1083 84° East 195 224 6,900  Level Chicago Center
Wed 06:01:25 AM 42.1436 -85.0364 84° East 194 223 6,900 50 Level Chicago Center
Wed 06:02:26 AM 42.1489 -84.9636 84° East 193 222 7,000 50 Climbing Chicago Center
Wed 06:03:26 AM 42.1536 -84.8919 85° East 193 222 7,000  Level Chicago Center
Wed 06:04:26 AM 42.1586 -84.8194 85° East 193 222 7,000  Level Chicago Center
Wed 06:05:27 AM 42.1633 -84.7472 85° East 194 223 7,000  Level Chicago Center
Wed 06:06:27 AM 42.1681 -84.6747 85° East 194 223 7,000  Level Chicago Center
Wed 06:07:28 AM 42.1733 -84.6014 84° East 195 224 7,000  Level Chicago Center
Wed 06:08:28 AM 42.1781 -84.5256 85° East 195 224 7,000 -48 Level Chicago Center
Wed 06:09:34 AM 42.1847 -84.4450 84° East 196 226 6,900 -47 Descending Cleveland Center
Wed 06:10:35 AM 42.1872 -84.3722 87° East 195 224 6,900 -403 Level Cleveland Center
Wed 06:11:48 AM 42.1922 -84.2772 86° East 221 254 6,000 -678 Descending Cleveland Center
Wed 06:12:30 AM 42.1961 -84.2214 85° East 223 257 5,600 -699 Descending Cleveland Center
Wed 06:13:31 AM 42.2008 -84.1431 85° East 215 247 4,800 -358 Descending Cleveland Center
Wed 06:14:44 AM 42.2097 -84.0511 83° East 202 232 4,800 -94 Level Cleveland Center
Wed 06:15:39 AM 42.2139 -83.9839 85° East 192 221 4,600 -574 Descending Cleveland Center
Wed 06:16:39 AM 42.2183 -83.9031 86° East 205 236 3,700 -939 Descending Cleveland Center
Wed 06:17:34 AM 42.2247 -83.8303 83° East 214 246 2,800 -703 Descending Cleveland Center
Wed 06:18:47 AM 42.2333 -83.7467 82° East 196 226 2,200 -406 Descending Cleveland Center
Wed 06:19:47 AM 42.2394 -83.6739 84° East 176 203 1,900 -261 Descending Cleveland Center
Wed 06:20:42 AM 42.2428 -83.6208 85° East 169 194 1,700 -517 Descending Cleveland Center
Wed 06:21:43 AM 42.2444 -83.5647 88° East 134 154 900 -787 Descending Cleveland Center
Wed 06:23:00 AM 42.2393 -83.5310 90° East  Level Estimated

Login

Don't have an account? Register now (free) for customized features, flight alerts, and more!